sensor_id;sensor_type;location;lat;lon;timestamp;P1;durP1;ratioP1;P2;durP2;ratioP2
10269;SDS011;70826;50.930;5.334;2024-03-06T00:00:04;114.15;;;107.90;;
10269;SDS011;70826;50.930;5.334;2024-03-06T00:02:38;112.68;;;106.60;;
10269;SDS011;70826;50.930;5.334;2024-03-06T00:05:04;108.97;;;103.10;;
10269;SDS011;70826;50.930;5.334;2024-03-06T00:07:30;106.70;;;100.90;;
10269;SDS011;70826;50.930;5.334;2024-03-06T00:09:55;109.68;;;103.78;;
10269;SDS011;70826;50.930;5.334;2024-03-06T00:12:21;108.78;;;102.80;;
10269;SDS011;70826;50.930;5.334;2024-03-06T00:14:49;106.20;;;100.43;;
10269;SDS011;70826;50.930;5.334;2024-03-06T00:17:17;112.97;;;106.80;;
10269;SDS011;70826;50.930;5.334;2024-03-06T00:19:47;108.43;;;102.57;;
10269;SDS011;70826;50.930;5.334;2024-03-06T00:22:15;107.53;;;101.70;;
10269;SDS011;70826;50.930;5.334;2024-03-06T00:24:44;105.55;;;99.75;;
10269;SDS011;70826;50.930;5.334;2024-03-06T00:27:13;111.85;;;105.85;;
10269;SDS011;70826;50.930;5.334;2024-03-06T00:29:38;111.85;;;105.82;;
10269;SDS011;70826;50.930;5.334;2024-03-06T00:32:09;109.93;;;104.00;;
10269;SDS011;70826;50.930;5.334;2024-03-06T00:34:34;114.90;;;108.60;;
10269;SDS011;70826;50.930;5.334;2024-03-06T00:37:02;108.72;;;102.80;;
10269;SDS011;70826;50.930;5.334;2024-03-06T00:39:30;107.70;;;101.95;;
10269;SDS011;70826;50.930;5.334;2024-03-06T00:42:00;110.03;;;104.10;;
10269;SDS011;70826;50.930;5.334;2024-03-06T00:44:26;106.18;;;100.43;;
10269;SDS011;70826;50.930;5.334;2024-03-06T00:46:54;113.82;;;107.68;;
10269;SDS011;70826;50.930;5.334;2024-03-06T00:49:21;107.45;;;101.68;;
10269;SDS011;70826;50.930;5.334;2024-03-06T00:51:47;114.60;;;108.35;;
10269;SDS011;70826;50.930;5.334;2024-03-06T00:54:15;111.93;;;105.80;;
10269;SDS011;70826;50.930;5.334;2024-03-06T00:56:41;114.28;;;108.05;;
10269;SDS011;70826;50.930;5.334;2024-03-06T00:59:06;106.65;;;100.88;;
10269;SDS011;70826;50.930;5.334;2024-03-06T01:01:35;108.68;;;102.82;;
10269;SDS011;70826;50.930;5.334;2024-03-06T01:04:00;109.15;;;103.25;;
10269;SDS011;70826;50.930;5.334;2024-03-06T01:06:27;114.45;;;108.20;;
10269;SDS011;70826;50.930;5.334;2024-03-06T01:08:53;114.30;;;108.15;;
10269;SDS011;70826;50.930;5.334;2024-03-06T01:11:19;109.15;;;103.30;;
10269;SDS011;70826;50.930;5.334;2024-03-06T01:13:45;109.28;;;103.40;;
10269;SDS011;70826;50.930;5.334;2024-03-06T01:16:10;111.75;;;105.78;;
10269;SDS011;70826;50.930;5.334;2024-03-06T01:18:36;107.28;;;101.47;;
10269;SDS011;70826;50.930;5.334;2024-03-06T01:21:02;111.10;;;105.07;;
10269;SDS011;70826;50.930;5.334;2024-03-06T01:23:30;104.55;;;98.95;;
10269;SDS011;70826;50.930;5.334;2024-03-06T01:25:58;105.07;;;99.40;;
10269;SDS011;70826;50.930;5.334;2024-03-06T01:28:26;109.43;;;103.50;;
10269;SDS011;70826;50.930;5.334;2024-03-06T01:30:54;108.07;;;102.22;;
10269;SDS011;70826;50.930;5.334;2024-03-06T01:33:23;103.20;;;97.65;;
10269;SDS011;70826;50.930;5.334;2024-03-06T01:35:49;107.85;;;102.00;;
10269;SDS011;70826;50.930;5.334;2024-03-06T01:38:17;109.32;;;103.38;;
10269;SDS011;70826;50.930;5.334;2024-03-06T01:40:49;111.15;;;105.13;;
10269;SDS011;70826;50.930;5.334;2024-03-06T01:43:22;116.15;;;109.90;;
10269;SDS011;70826;50.930;5.334;2024-03-06T01:45:53;106.47;;;100.72;;
10269;SDS011;70826;50.930;5.334;2024-03-06T01:48:23;109.55;;;103.55;;
10269;SDS011;70826;50.930;5.334;2024-03-06T01:50:53;103.85;;;98.20;;
10269;SDS011;70826;50.930;5.334;2024-03-06T01:53:21;106.10;;;100.43;;
10269;SDS011;70826;50.930;5.334;2024-03-06T01:55:52;106.32;;;100.65;;
10269;SDS011;70826;50.930;5.334;2024-03-06T01:58:20;101.88;;;96.40;;
10269;SDS011;70826;50.930;5.334;2024-03-06T02:00:51;106.40;;;100.57;;
10269;SDS011;70826;50.930;5.334;2024-03-06T02:03:22;105.68;;;99.95;;
10269;SDS011;70826;50.930;5.334;2024-03-06T02:05:52;106.07;;;100.28;;
10269;SDS011;70826;50.930;5.334;2024-03-06T02:08:23;109.10;;;103.20;;
10269;SDS011;70826;50.930;5.334;2024-03-06T02:10:48;107.53;;;101.68;;
10269;SDS011;70826;50.930;5.334;2024-03-06T02:13:14;109.45;;;103.50;;
10269;SDS011;70826;50.930;5.334;2024-03-06T02:15:44;109.80;;;103.93;;
10269;SDS011;70826;50.930;5.334;2024-03-06T02:18:10;107.88;;;101.95;;
10269;SDS011;70826;50.930;5.334;2024-03-06T02:20:38;104.43;;;98.72;;
10269;SDS011;70826;50.930;5.334;2024-03-06T02:23:10;109.68;;;103.78;;
10269;SDS011;70826;50.930;5.334;2024-03-06T02:25:39;109.30;;;103.32;;
10269;SDS011;70826;50.930;5.334;2024-03-06T02:28:09;110.70;;;104.75;;
10269;SDS011;70826;50.930;5.334;2024-03-06T02:30:37;107.60;;;101.88;;
10269;SDS011;70826;50.930;5.334;2024-03-06T02:33:07;111.90;;;105.80;;
10269;SDS011;70826;50.930;5.334;2024-03-06T02:35:38;109.40;;;103.45;;
10269;SDS011;70826;50.930;5.334;2024-03-06T02:38:05;110.10;;;104.15;;
10269;SDS011;70826;50.930;5.334;2024-03-06T02:40:33;107.43;;;101.47;;
10269;SDS011;70826;50.930;5.334;2024-03-06T02:43:01;115.38;;;109.13;;
10269;SDS011;70826;50.930;5.334;2024-03-06T02:45:29;111.65;;;105.65;;
10269;SDS011;70826;50.930;5.334;2024-03-06T02:47:57;107.43;;;101.57;;
10269;SDS011;70826;50.930;5.334;2024-03-06T02:50:27;105.22;;;99.47;;
10269;SDS011;70826;50.930;5.334;2024-03-06T02:52:58;110.55;;;104.53;;
10269;SDS011;70826;50.930;5.334;2024-03-06T02:55:23;109.60;;;103.75;;
10269;SDS011;70826;50.930;5.334;2024-03-06T02:57:49;112.03;;;105.90;;
10269;SDS011;70826;50.930;5.334;2024-03-06T03:00:20;111.70;;;105.70;;
10269;SDS011;70826;50.930;5.334;2024-03-06T03:02:46;109.05;;;103.15;;
10269;SDS011;70826;50.930;5.334;2024-03-06T03:05:12;112.43;;;106.32;;
10269;SDS011;70826;50.930;5.334;2024-03-06T03:07:40;108.53;;;102.28;;
10269;SDS011;70826;50.930;5.334;2024-03-06T03:10:11;109.47;;;103.53;;
10269;SDS011;70826;50.930;5.334;2024-03-06T03:12:39;109.07;;;103.15;;
10269;SDS011;70826;50.930;5.334;2024-03-06T03:15:07;112.63;;;106.55;;
10269;SDS011;70826;50.930;5.334;2024-03-06T03:17:36;111.60;;;105.55;;
10269;SDS011;70826;50.930;5.334;2024-03-06T03:20:03;110.90;;;104.97;;
10269;SDS011;70826;50.930;5.334;2024-03-06T03:22:40;111.13;;;105.07;;
10269;SDS011;70826;50.930;5.334;2024-03-06T03:25:11;109.55;;;103.63;;
10269;SDS011;70826;50.930;5.334;2024-03-06T03:27:40;109.25;;;103.38;;
10269;SDS011;70826;50.930;5.334;2024-03-06T03:30:10;116.00;;;109.75;;
10269;SDS011;70826;50.930;5.334;2024-03-06T03:32:43;112.85;;;106.78;;
10269;SDS011;70826;50.930;5.334;2024-03-06T03:35:12;110.15;;;104.13;;
10269;SDS011;70826;50.930;5.334;2024-03-06T03:37:38;112.43;;;106.43;;
10269;SDS011;70826;50.930;5.334;2024-03-06T03:40:08;113.38;;;107.20;;
10269;SDS011;70826;50.930;5.334;2024-03-06T03:42:36;111.40;;;105.35;;
10269;SDS011;70826;50.930;5.334;2024-03-06T03:45:03;107.93;;;102.15;;
10269;SDS011;70826;50.930;5.334;2024-03-06T03:47:31;114.72;;;108.45;;
10269;SDS011;70826;50.930;5.334;2024-03-06T03:49:59;114.22;;;108.07;;
10269;SDS011;70826;50.930;5.334;2024-03-06T03:52:27;116.47;;;110.10;;
10269;SDS011;70826;50.930;5.334;2024-03-06T03:54:55;112.88;;;106.78;;
10269;SDS011;70826;50.930;5.334;2024-03-06T03:57:23;116.57;;;110.20;;
10269;SDS011;70826;50.930;5.334;2024-03-06T03:59:48;112.57;;;106.50;;
10269;SDS011;70826;50.930;5.334;2024-03-06T04:02:14;117.32;;;110.93;;
10269;SDS011;70826;50.930;5.334;2024-03-06T04:04:42;114.50;;;108.15;;
10269;SDS011;70826;50.930;5.334;2024-03-06T04:07:08;114.25;;;108.07;;
10269;SDS011;70826;50.930;5.334;2024-03-06T04:09:36;112.10;;;106.03;;
10269;SDS011;70826;50.930;5.334;2024-03-06T04:12:04;112.85;;;106.65;;
10269;SDS011;70826;50.930;5.334;2024-03-06T04:14:32;112.55;;;106.53;;
10269;SDS011;70826;50.930;5.334;2024-03-06T04:16:57;114.57;;;108.38;;
10269;SDS011;70826;50.930;5.334;2024-03-06T04:19:25;117.25;;;110.93;;
10269;SDS011;70826;50.930;5.334;2024-03-06T04:21:53;117.53;;;111.07;;
10269;SDS011;70826;50.930;5.334;2024-03-06T04:24:18;114.65;;;108.47;;
10269;SDS011;70826;50.930;5.334;2024-03-06T04:26:46;116.30;;;109.93;;
10269;SDS011;70826;50.930;5.334;2024-03-06T04:29:12;116.93;;;110.45;;
10269;SDS011;70826;50.930;5.334;2024-03-06T04:31:40;113.72;;;107.65;;
10269;SDS011;70826;50.930;5.334;2024-03-06T04:34:08;116.75;;;110.32;;
10269;SDS011;70826;50.930;5.334;2024-03-06T04:36:36;111.85;;;105.82;;
10269;SDS011;70826;50.930;5.334;2024-03-06T04:39:04;113.28;;;107.10;;
10269;SDS011;70826;50.930;5.334;2024-03-06T04:41:32;110.97;;;105.03;;
10269;SDS011;70826;50.930;5.334;2024-03-06T04:43:58;115.95;;;109.70;;
10269;SDS011;70826;50.930;5.334;2024-03-06T04:46:26;110.45;;;104.40;;
10269;SDS011;70826;50.930;5.334;2024-03-06T04:48:54;110.93;;;105.00;;
10269;SDS011;70826;50.930;5.334;2024-03-06T04:51:19;109.00;;;103.13;;
10269;SDS011;70826;50.930;5.334;2024-03-06T04:53:45;112.80;;;106.68;;
10269;SDS011;70826;50.930;5.334;2024-03-06T04:56:11;111.53;;;105.47;;
10269;SDS011;70826;50.930;5.334;2024-03-06T04:58:37;114.15;;;108.07;;
10269;SDS011;70826;50.930;5.334;2024-03-06T05:01:03;117.60;;;111.05;;
10269;SDS011;70826;50.930;5.334;2024-03-06T05:03:31;111.90;;;105.82;;
10269;SDS011;70826;50.930;5.334;2024-03-06T05:05:57;115.25;;;109.05;;
10269;SDS011;70826;50.930;5.334;2024-03-06T05:08:23;120.53;;;113.97;;
10269;SDS011;70826;50.930;5.334;2024-03-06T05:10:50;116.20;;;109.82;;
10269;SDS011;70826;50.930;5.334;2024-03-06T05:13:19;111.22;;;105.22;;
10269;SDS011;70826;50.930;5.334;2024-03-06T05:15:47;117.68;;;111.35;;
10269;SDS011;70826;50.930;5.334;2024-03-06T05:18:13;114.53;;;108.38;;
10269;SDS011;70826;50.930;5.334;2024-03-06T05:20:44;110.63;;;104.70;;
10269;SDS011;70826;50.930;5.334;2024-03-06T05:23:10;107.90;;;102.15;;
10269;SDS011;70826;50.930;5.334;2024-03-06T05:25:36;111.95;;;105.95;;
10269;SDS011;70826;50.930;5.334;2024-03-06T05:28:04;112.25;;;106.25;;
10269;SDS011;70826;50.930;5.334;2024-03-06T05:30:32;114.07;;;107.90;;
10269;SDS011;70826;50.930;5.334;2024-03-06T05:32:58;111.57;;;105.57;;
10269;SDS011;70826;50.930;5.334;2024-03-06T05:35:26;113.10;;;107.03;;
10269;SDS011;70826;50.930;5.334;2024-03-06T05:37:54;113.65;;;107.43;;
10269;SDS011;70826;50.930;5.334;2024-03-06T05:40:20;113.53;;;107.35;;
10269;SDS011;70826;50.930;5.334;2024-03-06T05:42:48;113.38;;;107.32;;
10269;SDS011;70826;50.930;5.334;2024-03-06T05:45:19;113.82;;;107.70;;
10269;SDS011;70826;50.930;5.334;2024-03-06T05:47:47;111.93;;;105.88;;
10269;SDS011;70826;50.930;5.334;2024-03-06T05:50:14;113.40;;;107.28;;
10269;SDS011;70826;50.930;5.334;2024-03-06T05:52:40;114.75;;;108.53;;
10269;SDS011;70826;50.930;5.334;2024-03-06T05:55:06;111.78;;;105.65;;
10269;SDS011;70826;50.930;5.334;2024-03-06T05:57:34;114.97;;;108.70;;
10269;SDS011;70826;50.930;5.334;2024-03-06T06:00:02;110.05;;;104.13;;
10269;SDS011;70826;50.930;5.334;2024-03-06T06:02:38;113.13;;;107.03;;
10269;SDS011;70826;50.930;5.334;2024-03-06T06:05:03;110.90;;;104.95;;
10269;SDS011;70826;50.930;5.334;2024-03-06T06:07:30;106.72;;;100.93;;
10269;SDS011;70826;50.930;5.334;2024-03-06T06:10:00;116.57;;;110.20;;
10269;SDS011;70826;50.930;5.334;2024-03-06T06:12:28;114.82;;;108.53;;
10269;SDS011;70826;50.930;5.334;2024-03-06T06:14:56;114.28;;;108.15;;
10269;SDS011;70826;50.930;5.334;2024-03-06T06:17:26;118.07;;;111.65;;
10269;SDS011;70826;50.930;5.334;2024-03-06T06:19:56;109.38;;;103.55;;
10269;SDS011;70826;50.930;5.334;2024-03-06T06:22:26;108.50;;;102.63;;
10269;SDS011;70826;50.930;5.334;2024-03-06T06:24:52;110.63;;;104.70;;
10269;SDS011;70826;50.930;5.334;2024-03-06T06:27:20;113.53;;;107.32;;
10269;SDS011;70826;50.930;5.334;2024-03-06T06:29:50;110.38;;;104.30;;
10269;SDS011;70826;50.930;5.334;2024-03-06T06:32:20;111.40;;;105.35;;
10269;SDS011;70826;50.930;5.334;2024-03-06T06:34:47;114.47;;;108.28;;
10269;SDS011;70826;50.930;5.334;2024-03-06T06:37:19;110.53;;;104.55;;
10269;SDS011;70826;50.930;5.334;2024-03-06T06:39:44;112.40;;;106.10;;
10269;SDS011;70826;50.930;5.334;2024-03-06T06:42:13;110.18;;;104.30;;
10269;SDS011;70826;50.930;5.334;2024-03-06T06:44:41;111.60;;;105.55;;
10269;SDS011;70826;50.930;5.334;2024-03-06T06:47:11;112.53;;;106.40;;
10269;SDS011;70826;50.930;5.334;2024-03-06T06:49:39;108.65;;;102.78;;
10269;SDS011;70826;50.930;5.334;2024-03-06T06:52:04;114.20;;;107.97;;
10269;SDS011;70826;50.930;5.334;2024-03-06T06:54:35;108.75;;;102.68;;
10269;SDS011;70826;50.930;5.334;2024-03-06T06:57:00;111.40;;;105.20;;
10269;SDS011;70826;50.930;5.334;2024-03-06T06:59:28;109.68;;;103.78;;
10269;SDS011;70826;50.930;5.334;2024-03-06T07:01:56;111.80;;;105.78;;
10269;SDS011;70826;50.930;5.334;2024-03-06T07:04:22;112.60;;;106.55;;
10269;SDS011;70826;50.930;5.334;2024-03-06T07:06:52;111.43;;;105.45;;
10269;SDS011;70826;50.930;5.334;2024-03-06T07:09:23;116.05;;;109.82;;
10269;SDS011;70826;50.930;5.334;2024-03-06T07:11:54;113.85;;;107.70;;
10269;SDS011;70826;50.930;5.334;2024-03-06T07:14:20;117.55;;;111.20;;
10269;SDS011;70826;50.930;5.334;2024-03-06T07:16:49;116.15;;;109.85;;
10269;SDS011;70826;50.930;5.334;2024-03-06T07:19:17;110.07;;;104.13;;
10269;SDS011;70826;50.930;5.334;2024-03-06T07:21:47;109.28;;;103.43;;
10269;SDS011;70826;50.930;5.334;2024-03-06T07:24:15;110.28;;;104.28;;
10269;SDS011;70826;50.930;5.334;2024-03-06T07:26:41;111.60;;;105.70;;
10269;SDS011;70826;50.930;5.334;2024-03-06T07:29:14;113.03;;;106.95;;
10269;SDS011;70826;50.930;5.334;2024-03-06T07:31:45;115.55;;;109.28;;
10269;SDS011;70826;50.930;5.334;2024-03-06T07:34:15;113.47;;;107.35;;
10269;SDS011;70826;50.930;5.334;2024-03-06T07:36:43;112.93;;;106.80;;
10269;SDS011;70826;50.930;5.334;2024-03-06T07:39:11;110.15;;;104.30;;
10269;SDS011;70826;50.930;5.334;2024-03-06T07:41:41;113.93;;;107.75;;
10269;SDS011;70826;50.930;5.334;2024-03-06T07:44:11;111.55;;;105.50;;
10269;SDS011;70826;50.930;5.334;2024-03-06T07:46:40;111.10;;;105.10;;
10269;SDS011;70826;50.930;5.334;2024-03-06T07:49:05;111.25;;;105.28;;
10269;SDS011;70826;50.930;5.334;2024-03-06T07:51:33;113.45;;;107.30;;
10269;SDS011;70826;50.930;5.334;2024-03-06T07:54:05;116.53;;;110.22;;
10269;SDS011;70826;50.930;5.334;2024-03-06T07:56:34;119.13;;;112.70;;
10269;SDS011;70826;50.930;5.334;2024-03-06T07:59:00;33.78;;;31.48;;
10269;SDS011;70826;50.930;5.334;2024-03-06T08:01:31;51.70;;;48.58;;
10269;SDS011;70826;50.930;5.334;2024-03-06T08:03:57;84.80;;;79.75;;
10269;SDS011;70826;50.930;5.334;2024-03-06T08:06:23;78.03;;;72.90;;
10269;SDS011;70826;50.930;5.334;2024-03-06T08:08:50;90.53;;;85.13;;
10269;SDS011;70826;50.930;5.334;2024-03-06T08:11:20;94.10;;;88.43;;
10269;SDS011;70826;50.930;5.334;2024-03-06T08:13:48;96.15;;;90.30;;
10269;SDS011;70826;50.930;5.334;2024-03-06T08:16:16;97.47;;;91.78;;
10269;SDS011;70826;50.930;5.334;2024-03-06T08:18:42;98.25;;;92.70;;
10269;SDS011;70826;50.930;5.334;2024-03-06T08:21:11;92.40;;;87.25;;
10269;SDS011;70826;50.930;5.334;2024-03-06T08:23:36;97.65;;;92.05;;
10269;SDS011;70826;50.930;5.334;2024-03-06T08:26:07;93.60;;;88.45;;
10269;SDS011;70826;50.930;5.334;2024-03-06T08:28:32;99.68;;;93.95;;
10269;SDS011;70826;50.930;5.334;2024-03-06T08:31:00;96.18;;;90.93;;
10269;SDS011;70826;50.930;5.334;2024-03-06T08:33:26;105.93;;;99.60;;
10269;SDS011;70826;50.930;5.334;2024-03-06T08:35:51;101.57;;;95.93;;
10269;SDS011;70826;50.930;5.334;2024-03-06T08:38:17;107.50;;;100.82;;
10269;SDS011;70826;50.930;5.334;2024-03-06T08:40:43;112.20;;;105.80;;
10269;SDS011;70826;50.930;5.334;2024-03-06T08:43:13;113.82;;;107.47;;
10269;SDS011;70826;50.930;5.334;2024-03-06T08:45:42;115.68;;;109.15;;
10269;SDS011;70826;50.930;5.334;2024-03-06T08:48:13;116.78;;;110.32;;
10269;SDS011;70826;50.930;5.334;2024-03-06T08:50:43;118.90;;;112.43;;
10269;SDS011;70826;50.930;5.334;2024-03-06T08:53:11;119.35;;;112.80;;
10269;SDS011;70826;50.930;5.334;2024-03-06T08:55:38;112.53;;;106.43;;
10269;SDS011;70826;50.930;5.334;2024-03-06T08:58:09;105.70;;;99.90;;
10269;SDS011;70826;50.930;5.334;2024-03-06T09:00:34;90.15;;;85.25;;
10269;SDS011;70826;50.930;5.334;2024-03-06T09:03:00;91.22;;;86.15;;
10269;SDS011;70826;50.930;5.334;2024-03-06T09:05:25;81.00;;;76.05;;
10269;SDS011;70826;50.930;5.334;2024-03-06T09:07:51;93.70;;;86.95;;
10269;SDS011;70826;50.930;5.334;2024-03-06T09:10:22;101.10;;;93.63;;
10269;SDS011;70826;50.930;5.334;2024-03-06T09:12:55;108.93;;;99.93;;
10269;SDS011;70826;50.930;5.334;2024-03-06T09:15:21;109.88;;;100.35;;
10269;SDS011;70826;50.930;5.334;2024-03-06T09:17:47;121.90;;;110.15;;
10269;SDS011;70826;50.930;5.334;2024-03-06T09:20:18;115.95;;;104.35;;
10269;SDS011;70826;50.930;5.334;2024-03-06T09:22:49;121.85;;;108.25;;
10269;SDS011;70826;50.930;5.334;2024-03-06T09:25:15;118.22;;;105.70;;
10269;SDS011;70826;50.930;5.334;2024-03-06T09:27:43;137.25;;;113.35;;
10269;SDS011;70826;50.930;5.334;2024-03-06T09:30:13;124.72;;;111.15;;
10269;SDS011;70826;50.930;5.334;2024-03-06T09:32:40;138.93;;;116.05;;
10269;SDS011;70826;50.930;5.334;2024-03-06T09:35:11;144.02;;;120.30;;
10269;SDS011;70826;50.930;5.334;2024-03-06T09:37:42;238.43;;;163.52;;
10269;SDS011;70826;50.930;5.334;2024-03-06T09:40:16;166.05;;;129.65;;
10269;SDS011;70826;50.930;5.334;2024-03-06T09:42:47;165.73;;;124.68;;
10269;SDS011;70826;50.930;5.334;2024-03-06T09:45:16;161.25;;;129.48;;
10269;SDS011;70826;50.930;5.334;2024-03-06T09:47:44;192.32;;;137.30;;
10269;SDS011;70826;50.930;5.334;2024-03-06T09:50:11;172.13;;;126.45;;
10269;SDS011;70826;50.930;5.334;2024-03-06T09:52:45;169.77;;;125.95;;
10269;SDS011;70826;50.930;5.334;2024-03-06T09:55:18;164.57;;;121.53;;
10269;SDS011;70826;50.930;5.334;2024-03-06T09:57:47;155.73;;;118.78;;
10269;SDS011;70826;50.930;5.334;2024-03-06T10:00:15;144.80;;;116.40;;
10269;SDS011;70826;50.930;5.334;2024-03-06T10:02:46;141.82;;;110.25;;
10269;SDS011;70826;50.930;5.334;2024-03-06T10:05:21;137.10;;;107.63;;
10269;SDS011;70826;50.930;5.334;2024-03-06T10:07:47;132.57;;;108.63;;
10269;SDS011;70826;50.930;5.334;2024-03-06T10:10:21;133.75;;;107.32;;
10269;SDS011;70826;50.930;5.334;2024-03-06T10:12:55;134.95;;;110.47;;
10269;SDS011;70826;50.930;5.334;2024-03-06T10:15:25;127.50;;;106.07;;
10269;SDS011;70826;50.930;5.334;2024-03-06T10:20:43;117.85;;;104.93;;
10269;SDS011;70826;50.930;5.334;2024-03-06T10:23:11;132.68;;;111.95;;
10269;SDS011;70826;50.930;5.334;2024-03-06T10:25:39;134.93;;;121.90;;
10269;SDS011;70826;50.930;5.334;2024-03-06T10:28:08;151.25;;;136.73;;
10269;SDS011;70826;50.930;5.334;2024-03-06T10:30:39;147.15;;;132.90;;
10269;SDS011;70826;50.930;5.334;2024-03-06T10:33:12;147.57;;;133.50;;
10269;SDS011;70826;50.930;5.334;2024-03-06T10:35:44;146.52;;;133.07;;
10269;SDS011;70826;50.930;5.334;2024-03-06T10:38:16;146.70;;;133.45;;
10269;SDS011;70826;50.930;5.334;2024-03-06T10:40:47;148.95;;;135.77;;
10269;SDS011;70826;50.930;5.334;2024-03-06T10:43:16;145.82;;;132.70;;
10269;SDS011;70826;50.930;5.334;2024-03-06T10:48:40;146.18;;;133.38;;
10269;SDS011;70826;50.930;5.334;2024-03-06T10:51:10;144.50;;;132.10;;
10269;SDS011;70826;50.930;5.334;2024-03-06T10:53:41;146.13;;;133.50;;
10269;SDS011;70826;50.930;5.334;2024-03-06T10:56:10;144.35;;;132.13;;
10269;SDS011;70826;50.930;5.334;2024-03-06T10:58:39;143.73;;;131.68;;
10269;SDS011;70826;50.930;5.334;2024-03-06T11:01:06;148.77;;;136.90;;
10269;SDS011;70826;50.930;5.334;2024-03-06T11:03:33;149.93;;;138.07;;
10269;SDS011;70826;50.930;5.334;2024-03-06T11:06:01;147.25;;;135.32;;
10269;SDS011;70826;50.930;5.334;2024-03-06T11:08:27;151.38;;;139.35;;
10269;SDS011;70826;50.930;5.334;2024-03-06T11:11:02;150.60;;;138.90;;
10269;SDS011;70826;50.930;5.334;2024-03-06T11:13:49;141.82;;;130.63;;
10269;SDS011;70826;50.930;5.334;2024-03-06T11:16:15;148.15;;;136.98;;
10269;SDS011;70826;50.930;5.334;2024-03-06T11:18:41;145.50;;;134.35;;
10269;SDS011;70826;50.930;5.334;2024-03-06T11:23:33;144.30;;;133.50;;
10269;SDS011;70826;50.930;5.334;2024-03-06T11:26:03;140.93;;;130.70;;
10269;SDS011;70826;50.930;5.334;2024-03-06T11:28:35;143.35;;;132.93;;
10269;SDS011;70826;50.930;5.334;2024-03-06T11:31:09;136.77;;;126.85;;
10269;SDS011;70826;50.930;5.334;2024-03-06T11:33:41;138.32;;;128.25;;
10269;SDS011;70826;50.930;5.334;2024-03-06T11:36:15;135.13;;;125.63;;
10269;SDS011;70826;50.930;5.334;2024-03-06T11:39:02;131.75;;;122.13;;
10269;SDS011;70826;50.930;5.334;2024-03-06T11:41:32;125.53;;;116.28;;
10269;SDS011;70826;50.930;5.334;2024-03-06T11:44:12;123.82;;;115.00;;
10269;SDS011;70826;50.930;5.334;2024-03-06T11:49:21;129.63;;;120.35;;
10269;SDS011;70826;50.930;5.334;2024-03-06T11:51:57;120.00;;;111.72;;
10269;SDS011;70826;50.930;5.334;2024-03-06T11:54:25;125.32;;;116.68;;
10269;SDS011;70826;50.930;5.334;2024-03-06T11:56:54;123.35;;;114.93;;
10269;SDS011;70826;50.930;5.334;2024-03-06T12:01:57;113.80;;;106.03;;
10269;SDS011;70826;50.930;5.334;2024-03-06T12:04:26;119.25;;;111.22;;
10269;SDS011;70826;50.930;5.334;2024-03-06T12:06:52;118.72;;;110.75;;
10269;SDS011;70826;50.930;5.334;2024-03-06T12:09:22;111.18;;;103.93;;
10269;SDS011;70826;50.930;5.334;2024-03-06T12:11:47;112.00;;;104.55;;
10269;SDS011;70826;50.930;5.334;2024-03-06T12:14:19;109.82;;;102.38;;
10269;SDS011;70826;50.930;5.334;2024-03-06T12:19:21;100.95;;;94.30;;
10269;SDS011;70826;50.930;5.334;2024-03-06T12:21:47;100.68;;;94.00;;
10269;SDS011;70826;50.930;5.334;2024-03-06T12:24:15;97.47;;;91.03;;
10269;SDS011;70826;50.930;5.334;2024-03-06T12:26:45;96.13;;;89.78;;
10269;SDS011;70826;50.930;5.334;2024-03-06T12:29:17;92.47;;;86.40;;
10269;SDS011;70826;50.930;5.334;2024-03-06T12:31:46;91.53;;;85.35;;
10269;SDS011;70826;50.930;5.334;2024-03-06T12:34:15;94.88;;;88.60;;
10269;SDS011;70826;50.930;5.334;2024-03-06T12:36:42;96.10;;;89.80;;
10269;SDS011;70826;50.930;5.334;2024-03-06T12:39:08;95.90;;;89.75;;
10269;SDS011;70826;50.930;5.334;2024-03-06T12:41:38;90.55;;;84.70;;
10269;SDS011;70826;50.930;5.334;2024-03-06T12:44:05;97.13;;;90.90;;
10269;SDS011;70826;50.930;5.334;2024-03-06T12:46:32;101.28;;;94.80;;
10269;SDS011;70826;50.930;5.334;2024-03-06T12:48:58;95.22;;;89.22;;
10269;SDS011;70826;50.930;5.334;2024-03-06T12:51:23;105.20;;;98.55;;
10269;SDS011;70826;50.930;5.334;2024-03-06T12:53:49;103.25;;;96.78;;
10269;SDS011;70826;50.930;5.334;2024-03-06T12:56:16;102.70;;;96.28;;
10269;SDS011;70826;50.930;5.334;2024-03-06T12:58:42;101.00;;;94.72;;
10269;SDS011;70826;50.930;5.334;2024-03-06T13:01:10;103.93;;;97.45;;
10269;SDS011;70826;50.930;5.334;2024-03-06T13:03:36;99.75;;;93.55;;
10269;SDS011;70826;50.930;5.334;2024-03-06T13:06:07;99.75;;;93.68;;
10269;SDS011;70826;50.930;5.334;2024-03-06T13:08:37;102.88;;;96.53;;
10269;SDS011;70826;50.930;5.334;2024-03-06T13:11:05;105.03;;;98.50;;
10269;SDS011;70826;50.930;5.334;2024-03-06T13:13:30;108.43;;;101.90;;
10269;SDS011;70826;50.930;5.334;2024-03-06T13:15:59;102.28;;;96.13;;
10269;SDS011;70826;50.930;5.334;2024-03-06T13:18:25;106.90;;;100.40;;
10269;SDS011;70826;50.930;5.334;2024-03-06T13:20:51;104.78;;;98.43;;
10269;SDS011;70826;50.930;5.334;2024-03-06T13:23:17;104.15;;;97.90;;
10269;SDS011;70826;50.930;5.334;2024-03-06T13:25:45;106.50;;;100.07;;
10269;SDS011;70826;50.930;5.334;2024-03-06T13:28:11;104.47;;;98.25;;
10269;SDS011;70826;50.930;5.334;2024-03-06T13:30:37;104.43;;;98.38;;
10269;SDS011;70826;50.930;5.334;2024-03-06T13:33:05;107.93;;;101.65;;
10269;SDS011;70826;50.930;5.334;2024-03-06T13:35:31;109.72;;;103.25;;
10269;SDS011;70826;50.930;5.334;2024-03-06T13:37:56;105.03;;;98.88;;
10269;SDS011;70826;50.930;5.334;2024-03-06T13:40:22;105.60;;;99.30;;
10269;SDS011;70826;50.930;5.334;2024-03-06T13:42:48;114.80;;;108.05;;
10269;SDS011;70826;50.930;5.334;2024-03-06T13:45:13;107.47;;;101.32;;
10269;SDS011;70826;50.930;5.334;2024-03-06T13:47:40;109.75;;;103.40;;
10269;SDS011;70826;50.930;5.334;2024-03-06T13:50:10;109.53;;;103.18;;
10269;SDS011;70826;50.930;5.334;2024-03-06T13:52:40;110.40;;;104.05;;
10269;SDS011;70826;50.930;5.334;2024-03-06T13:55:06;108.60;;;102.40;;
10269;SDS011;70826;50.930;5.334;2024-03-06T13:57:36;107.78;;;101.60;;
10269;SDS011;70826;50.930;5.334;2024-03-06T14:00:08;104.97;;;99.03;;
10269;SDS011;70826;50.930;5.334;2024-03-06T14:02:42;103.95;;;97.82;;
10269;SDS011;70826;50.930;5.334;2024-03-06T14:05:13;104.03;;;98.07;;
10269;SDS011;70826;50.930;5.334;2024-03-06T14:07:42;106.18;;;100.18;;
10269;SDS011;70826;50.930;5.334;2024-03-06T14:10:07;107.18;;;101.05;;
10269;SDS011;70826;50.930;5.334;2024-03-06T14:12:34;104.28;;;98.40;;
10269;SDS011;70826;50.930;5.334;2024-03-06T14:15:04;108.93;;;102.72;;
10269;SDS011;70826;50.930;5.334;2024-03-06T14:17:41;108.70;;;102.65;;
10269;SDS011;70826;50.930;5.334;2024-03-06T14:20:07;110.50;;;104.18;;
10269;SDS011;70826;50.930;5.334;2024-03-06T14:22:33;110.25;;;104.00;;